Time;durP1;ratioP1;P1;durP2;ratioP2;P2;SDS_P1;SDS_P2;PMS_P1;PMS_P2;Temp;Humidity;BMP_temperature;BMP_pressure;BME280_temperature;BME280_humidity;BME280_pressure;Samples;Min_cycle;Max_cycle;Signal;HPM_P1;HPM_P2
2021/06/12 00:01:16;;;;;;;13.27;5.90;;;;;;;;;;5028212;28;37632;-82
2021/06/12 00:03:43;;;;;;;14.80;6.75;;;;;;;;;;5056624;28;39859;-82
2021/06/12 00:06:09;;;;;;;12.73;6.97;;;;;;;;;;5057046;28;38513;-82
2021/06/12 00:08:36;;;;;;;11.90;6.57;;;;;;;;;;5049734;28;37531;-82
2021/06/12 00:11:02;;;;;;;13.73;6.93;;;;;;;;;;5035689;28;36835;-81
2021/06/12 00:13:29;;;;;;;13.43;6.93;;;;;;;;;;5034859;28;38547;-81
2021/06/12 00:15:56;;;;;;;11.88;6.75;;;;;;;;;;5060043;28;39285;-81
2021/06/12 00:18:23;;;;;;;12.85;6.47;;;;;;;;;;5033128;28;38165;-81
2021/06/12 00:20:50;;;;;;;15.75;6.82;;;;;;;;;;5059210;27;37099;-82
2021/06/12 00:23:17;;;;;;;13.25;7.50;;;;;;;;;;5037604;28;38819;-83
2021/06/12 00:25:43;;;;;;;12.13;7.20;;;;;;;;;;5066564;28;39284;-82
2021/06/12 00:28:10;;;;;;;15.15;7.93;;;;;;;;;;5027928;28;38514;-82
2021/06/12 00:30:36;;;;;;;13.82;7.68;;;;;;;;;;5079877;27;36627;-81
2021/06/12 00:33:03;;;;;;;15.07;7.55;;;;;;;;;;5058949;28;40215;-82
2021/06/12 00:35:30;;;;;;;17.98;8.00;;;;;;;;;;5046726;28;39426;-81
2021/06/12 00:37:56;;;;;;;17.45;8.65;;;;;;;;;;5028523;28;38587;-82
2021/06/12 00:40:23;;;;;;;14.88;8.32;;;;;;;;;;5043659;27;36521;-81
2021/06/12 00:42:51;;;;;;;12.82;8.60;;;;;;;;;;5026934;28;38445;-82
2021/06/12 00:45:19;;;;;;;16.33;8.30;;;;;;;;;;5038957;28;39447;-81
2021/06/12 00:47:46;;;;;;;13.05;7.65;;;;;;;;;;5070778;28;39811;-81
2021/06/12 00:50:13;;;;;;;15.63;9.00;;;;;;;;;;5030638;28;36842;-81
2021/06/12 00:52:39;;;;;;;14.82;8.13;;;;;;;;;;5061837;28;39609;-80
2021/06/12 00:55:06;;;;;;;17.35;8.40;;;;;;;;;;5052078;28;39251;-81
2021/06/12 00:57:33;;;;;;;14.95;8.63;;;;;;;;;;5033523;28;38903;-80
2021/06/12 01:00:01;;;;;;;15.80;7.32;;;;;;;;;;5063501;28;37618;-81
2021/06/12 01:02:27;;;;;;;18.52;7.80;;;;;;;;;;5035787;27;39070;-81
2021/06/12 01:04:54;;;;;;;18.77;9.07;;;;;;;;;;5058895;28;39506;-82
2021/06/12 01:07:20;;;;;;;17.88;8.95;;;;;;;;;;5037966;28;38738;-81
2021/06/12 01:09:47;;;;;;;16.15;8.20;;;;;;;;;;5057182;28;37253;-81
2021/06/12 01:12:13;;;;;;;15.32;8.82;;;;;;;;;;5036699;27;39893;-80
2021/06/12 01:14:41;;;;;;;14.90;8.13;;;;;;;;;;5037310;28;37642;-80
2021/06/12 01:17:27;;;;;;;15.60;8.15;;;;;;;;;;5033761;27;39055;-80
2021/06/12 01:20:12;;;;;;;21.33;10.02;;;;;;;;;;5057449;28;37192;-81
2021/06/12 01:22:38;;;;;;;13.55;8.57;;;;;;;;;;5054920;28;48543;-79
2021/06/12 01:25:09;;;;;;;14.27;8.05;;;;;;;;;;5057460;27;38337;-81
2021/06/12 01:27:56;;;;;;;22.58;9.38;;;;;;;;;;5070053;27;39443;-80
2021/06/12 01:30:23;;;;;;;15.05;8.10;;;;;;;;;;5048800;27;35840;-81
2021/06/12 01:32:51;;;;;;;20.25;9.45;;;;;;;;;;5058902;28;39248;-80
2021/06/12 01:35:25;;;;;;;14.70;9.13;;;;;;;;;;5075382;27;38743;-82
2021/06/12 01:37:54;;;;;;;18.30;8.93;;;;;;;;;;5052688;28;38211;-80
2021/06/12 01:40:22;;;;;;;14.75;8.88;;;;;;;;;;5068113;27;37514;-81
2021/06/12 01:42:49;;;;;;;18.63;8.85;;;;;;;;;;5054721;27;40023;-81
2021/06/12 01:45:16;;;;;;;16.30;9.27;;;;;;;;;;5072405;27;38285;-81
2021/06/12 01:47:42;;;;;;;14.00;9.00;;;;;;;;;;5058372;28;38623;-81
2021/06/12 01:50:10;;;;;;;15.95;8.85;;;;;;;;;;5055043;27;36928;-82
2021/06/12 01:52:38;;;;;;;16.52;9.70;;;;;;;;;;5051711;28;39559;-81
2021/06/12 01:55:05;;;;;;;13.95;7.80;;;;;;;;;;5077789;27;39162;-80
2021/06/12 01:57:32;;;;;;;15.85;8.07;;;;;;;;;;5057830;27;48750;-80
2021/06/12 01:59:59;;;;;;;15.55;8.75;;;;;;;;;;5063366;27;35586;-80
2021/06/12 02:02:25;;;;;;;13.45;7.90;;;;;;;;;;5051412;27;39807;-81
2021/06/12 02:04:52;;;;;;;17.33;8.63;;;;;;;;;;5053775;28;40600;-80
2021/06/12 02:07:20;;;;;;;17.45;8.98;;;;;;;;;;5049362;28;39289;-81
2021/06/12 02:09:47;;;;;;;15.02;9.80;;;;;;;;;;5035815;28;37813;-80
2021/06/12 02:12:15;;;;;;;13.45;8.93;;;;;;;;;;5040422;27;39619;-80
2021/06/12 02:14:42;;;;;;;15.27;9.05;;;;;;;;;;5033955;28;38346;-80
2021/06/12 02:17:09;;;;;;;15.85;9.02;;;;;;;;;;5032243;28;39048;-80
2021/06/12 02:19:37;;;;;;;14.70;8.98;;;;;;;;;;5058873;28;37208;-79
2021/06/12 02:22:03;;;;;;;14.13;9.68;;;;;;;;;;5033297;28;39105;-79
2021/06/12 02:24:30;;;;;;;14.70;9.60;;;;;;;;;;5058159;28;39870;-79
2021/06/12 02:26:57;;;;;;;17.42;9.95;;;;;;;;;;5033181;28;38060;-80
2021/06/12 02:29:25;;;;;;;16.88;10.00;;;;;;;;;;5056454;28;38296;-80
2021/06/12 02:31:53;;;;;;;17.42;9.45;;;;;;;;;;5036074;28;39631;-79
2021/06/12 02:34:20;;;;;;;16.63;9.73;;;;;;;;;;5055791;28;38833;-80
2021/06/12 02:36:46;;;;;;;12.38;8.68;;;;;;;;;;5060529;28;39301;-80
2021/06/12 02:39:13;;;;;;;16.63;10.10;;;;;;;;;;5036687;28;37969;-81
2021/06/12 02:41:39;;;;;;;15.95;10.88;;;;;;;;;;5033730;27;38951;-79
2021/06/12 02:44:05;;;;;;;14.10;8.73;;;;;;;;;;5037130;28;39904;-79
2021/06/12 02:46:32;;;;;;;16.63;9.82;;;;;;;;;;5034013;27;39238;-79
2021/06/12 02:49:04;;;;;;;16.73;11.05;;;;;;;;;;5059280;28;36956;-79
2021/06/12 02:51:33;;;;;;;15.38;10.35;;;;;;;;;;5052236;28;47156;-79
2021/06/12 02:54:00;;;;;;;16.10;9.35;;;;;;;;;;5053906;28;39188;-79
2021/06/12 02:56:27;;;;;;;13.68;9.85;;;;;;;;;;5039386;28;39138;-79
2021/06/12 02:58:57;;;;;;;17.45;10.70;;;;;;;;;;5030655;28;37684;-82
2021/06/12 03:01:24;;;;;;;14.60;10.07;;;;;;;;;;5032747;28;39220;-81
2021/06/12 03:03:52;;;;;;;19.08;11.88;;;;;;;;;;5050210;28;38988;-80
2021/06/12 03:06:20;;;;;;;15.57;10.70;;;;;;;;;;5053033;27;39303;-80
2021/06/12 03:08:48;;;;;;;17.83;11.00;;;;;;;;;;5055729;27;37854;-81
2021/06/12 03:11:14;;;;;;;17.65;11.13;;;;;;;;;;5054133;27;39555;-81
2021/06/12 03:13:43;;;;;;;15.35;10.65;;;;;;;;;;5055076;27;39195;-80
2021/06/12 03:16:10;;;;;;;15.55;10.25;;;;;;;;;;5051235;27;36040;-80
2021/06/12 03:18:37;;;;;;;17.30;11.77;;;;;;;;;;5055519;28;37869;-80
2021/06/12 03:21:04;;;;;;;16.60;10.73;;;;;;;;;;5048644;28;39326;-80
2021/06/12 03:23:31;;;;;;;17.13;10.55;;;;;;;;;;5049630;28;38234;-81
2021/06/12 03:25:58;;;;;;;20.83;11.35;;;;;;;;;;5050661;27;38285;-81
2021/06/12 03:28:25;;;;;;;18.15;12.20;;;;;;;;;;5048338;28;37980;-81
2021/06/12 03:30:52;;;;;;;15.13;10.38;;;;;;;;;;5049800;27;38890;-80
2021/06/12 03:33:18;;;;;;;17.00;11.13;;;;;;;;;;5052196;28;40456;-80
2021/06/12 03:35:45;;;;;;;12.80;9.30;;;;;;;;;;5056339;27;39125;-80
2021/06/12 03:38:12;;;;;;;15.18;10.45;;;;;;;;;;5066839;27;40062;-82
2021/06/12 03:40:39;;;;;;;17.88;11.30;;;;;;;;;;5050018;28;41522;-80
2021/06/12 03:43:07;;;;;;;16.23;11.85;;;;;;;;;;5054435;27;37781;-82
2021/06/12 03:45:35;;;;;;;14.90;10.93;;;;;;;;;;5049128;27;40426;-81
2021/06/12 03:48:02;;;;;;;14.63;10.43;;;;;;;;;;5054362;27;36920;-80
2021/06/12 03:50:29;;;;;;;16.13;10.55;;;;;;;;;;5037774;28;48364;-81
2021/06/12 03:52:56;;;;;;;16.02;9.85;;;;;;;;;;5053045;28;39116;-80
2021/06/12 03:55:22;;;;;;;13.65;9.32;;;;;;;;;;5052405;28;38463;-81
2021/06/12 03:57:49;;;;;;;14.30;9.48;;;;;;;;;;5063824;27;34258;-81
2021/06/12 04:00:16;;;;;;;12.30;8.95;;;;;;;;;;5052713;28;39585;-82
2021/06/12 04:02:43;;;;;;;14.52;9.60;;;;;;;;;;5055066;27;39054;-81
2021/06/12 04:05:09;;;;;;;19.10;9.55;;;;;;;;;;5049571;28;39131;-82
2021/06/12 04:07:40;;;;;;;14.57;9.18;;;;;;;;;;5073590;27;37643;-81
2021/06/12 04:10:07;;;;;;;15.00;8.82;;;;;;;;;;5053642;27;39555;-81
2021/06/12 04:12:33;;;;;;;15.82;8.68;;;;;;;;;;5058042;27;38085;-80
2021/06/12 04:15:00;;;;;;;12.82;8.13;;;;;;;;;;5054803;28;39498;-81
2021/06/12 04:17:26;;;;;;;11.18;6.90;;;;;;;;;;5055815;28;35231;-81
2021/06/12 04:19:52;;;;;;;16.73;7.70;;;;;;;;;;5047089;27;39938;-79
2021/06/12 04:22:19;;;;;;;10.15;5.97;;;;;;;;;;5051306;27;39571;-80
2021/06/12 04:24:45;;;;;;;9.65;5.65;;;;;;;;;;5053720;28;37945;-80
2021/06/12 04:27:11;;;;;;;9.63;5.78;;;;;;;;;;5055710;28;38198;-79
2021/06/12 04:29:38;;;;;;;9.05;6.38;;;;;;;;;;5056830;27;38287;-81
2021/06/12 04:32:04;;;;;;;13.07;6.72;;;;;;;;;;5047826;27;37484;-80
2021/06/12 04:34:31;;;;;;;10.57;5.57;;;;;;;;;;5049988;28;40319;-81
2021/06/12 04:36:59;;;;;;;9.68;5.75;;;;;;;;;;5062672;27;36942;-80
2021/06/12 04:39:26;;;;;;;10.88;5.97;;;;;;;;;;5054113;28;40908;-79
2021/06/12 04:41:52;;;;;;;8.25;5.22;;;;;;;;;;5055769;28;39058;-79
2021/06/12 04:44:19;;;;;;;7.53;5.28;;;;;;;;;;5057714;27;38407;-79
2021/06/12 04:46:45;;;;;;;8.90;5.28;;;;;;;;;;5051892;27;37984;-80
2021/06/12 04:49:12;;;;;;;9.45;5.20;;;;;;;;;;5070386;27;39342;-79
2021/06/12 04:51:38;;;;;;;7.35;4.50;;;;;;;;;;5055202;27;38202;-79
2021/06/12 04:54:05;;;;;;;8.80;5.18;;;;;;;;;;5069577;27;38785;-80
2021/06/12 04:56:31;;;;;;;10.45;5.43;;;;;;;;;;5051477;27;37573;-78
2021/06/12 04:58:57;;;;;;;10.38;5.30;;;;;;;;;;5055769;28;36984;-79
2021/06/12 05:01:24;;;;;;;7.70;4.30;;;;;;;;;;5049711;27;38747;-79
2021/06/12 05:03:50;;;;;;;10.02;5.50;;;;;;;;;;5059122;27;38387;-80
2021/06/12 05:06:17;;;;;;;6.78;4.22;;;;;;;;;;5055626;28;38211;-79
2021/06/12 05:08:43;;;;;;;7.93;5.30;;;;;;;;;;5068582;27;39593;-79
2021/06/12 05:11:10;;;;;;;8.65;4.30;;;;;;;;;;5061394;28;38925;-79
2021/06/12 05:13:36;;;;;;;9.55;4.15;;;;;;;;;;5062054;27;37374;-81
2021/06/12 05:16:04;;;;;;;7.18;3.03;;;;;;;;;;5063826;27;37119;-79
2021/06/12 05:18:45;;;;;;;5.53;3.05;;;;;;;;;;5066736;27;39124;-80
2021/06/12 05:21:12;;;;;;;6.63;3.10;;;;;;;;;;5060399;27;39666;-80
2021/06/12 05:23:39;;;;;;;7.85;2.97;;;;;;;;;;5058630;27;38743;-80
2021/06/12 05:26:05;;;;;;;4.50;2.72;;;;;;;;;;5061003;27;36740;-79
2021/06/12 05:28:32;;;;;;;6.90;3.10;;;;;;;;;;5059095;28;40937;-80
2021/06/12 05:30:59;;;;;;;7.07;3.13;;;;;;;;;;5055337;28;38951;-79
2021/06/12 05:33:26;;;;;;;6.22;3.13;;;;;;;;;;5051503;27;39878;-81
2021/06/12 05:35:52;;;;;;;6.13;3.25;;;;;;;;;;5051043;28;37488;-80
2021/06/12 05:38:19;;;;;;;4.93;2.78;;;;;;;;;;5042719;28;39066;-79
2021/06/12 05:40:46;;;;;;;10.30;2.95;;;;;;;;;;5060355;28;39681;-79
2021/06/12 05:43:12;;;;;;;5.53;2.38;;;;;;;;;;5061293;28;38923;-79
2021/06/12 05:45:39;;;;;;;8.10;2.60;;;;;;;;;;5028865;28;36786;-79
2021/06/12 05:48:05;;;;;;;7.13;2.50;;;;;;;;;;5032811;28;39756;-79
2021/06/12 05:50:32;;;;;;;5.10;2.47;;;;;;;;;;5063866;27;39890;-78
2021/06/12 05:52:58;;;;;;;8.80;3.20;;;;;;;;;;5067943;28;38415;-79
2021/06/12 05:55:25;;;;;;;8.05;3.05;;;;;;;;;;5062327;28;37275;-82
2021/06/12 05:57:51;;;;;;;5.18;2.40;;;;;;;;;;5058540;28;40118;-79
2021/06/12 06:00:17;;;;;;;7.35;2.65;;;;;;;;;;5056135;28;38397;-80
2021/06/12 06:02:44;;;;;;;6.97;2.75;;;;;;;;;;5031124;28;40065;-80
2021/06/12 06:05:11;;;;;;;6.78;2.58;;;;;;;;;;5024678;27;37654;-80
2021/06/12 06:07:37;;;;;;;7.72;2.72;;;;;;;;;;5026598;28;38964;-81
2021/06/12 06:10:04;;;;;;;7.53;2.85;;;;;;;;;;5058751;28;38752;-81
2021/06/12 06:12:30;;;;;;;7.43;2.15;;;;;;;;;;5063786;28;47247;-81
2021/06/12 06:14:57;;;;;;;5.18;2.13;;;;;;;;;;5030225;28;35621;-80
2021/06/12 06:17:23;;;;;;;7.00;2.38;;;;;;;;;;5029495;28;37819;-78
2021/06/12 06:19:50;;;;;;;4.65;2.40;;;;;;;;;;5032658;28;38868;-79
2021/06/12 06:22:16;;;;;;;5.43;2.15;;;;;;;;;;5056947;28;39148;-77
2021/06/12 06:24:43;;;;;;;7.00;2.30;;;;;;;;;;5026970;28;38711;-78
2021/06/12 06:27:09;;;;;;;4.90;2.05;;;;;;;;;;5031511;28;39292;-79
2021/06/12 06:29:36;;;;;;;5.00;2.15;;;;;;;;;;5069119;28;38860;-80
2021/06/12 06:32:03;;;;;;;6.25;2.40;;;;;;;;;;5068372;27;38599;-79
2021/06/12 06:34:30;;;;;;;6.10;2.28;;;;;;;;;;5039369;28;36969;-78
2021/06/12 06:36:56;;;;;;;5.88;2.17;;;;;;;;;;5030804;28;39824;-77
2021/06/12 06:39:23;;;;;;;7.15;1.98;;;;;;;;;;5070328;28;39263;-78
2021/06/12 06:41:49;;;;;;;6.70;2.05;;;;;;;;;;5066807;28;40044;-77
2021/06/12 06:44:16;;;;;;;5.50;1.98;;;;;;;;;;5063898;28;36017;-77
2021/06/12 06:46:42;;;;;;;4.50;2.05;;;;;;;;;;5031405;28;39717;-78
2021/06/12 06:49:08;;;;;;;7.25;2.35;;;;;;;;;;5061507;28;39364;-77
2021/06/12 06:51:35;;;;;;;7.28;2.30;;;;;;;;;;5069882;27;40348;-78
2021/06/12 06:54:01;;;;;;;8.52;2.13;;;;;;;;;;5059547;28;37418;-79
2021/06/12 06:56:28;;;;;;;4.38;1.95;;;;;;;;;;5019791;28;48351;-78
2021/06/12 06:58:54;;;;;;;4.22;1.80;;;;;;;;;;5024624;28;38449;-78
2021/06/12 07:01:21;;;;;;;5.82;2.03;;;;;;;;;;5037307;28;38449;-77
2021/06/12 07:03:47;;;;;;;6.88;1.90;;;;;;;;;;5026101;28;37063;-77
2021/06/12 07:06:14;;;;;;;4.38;1.67;;;;;;;;;;5042149;27;39531;-77
2021/06/12 07:08:40;;;;;;;5.72;2.08;;;;;;;;;;5060478;28;38668;-80
2021/06/12 07:11:07;;;;;;;5.47;2.10;;;;;;;;;;5026152;28;39292;-77
2021/06/12 07:13:34;;;;;;;4.45;1.90;;;;;;;;;;5026539;28;36353;-78
2021/06/12 07:16:01;;;;;;;6.88;1.80;;;;;;;;;;5040069;28;39688;-77
2021/06/12 07:18:27;;;;;;;5.97;1.88;;;;;;;;;;5045828;28;48816;-77
2021/06/12 07:20:54;;;;;;;5.00;2.17;;;;;;;;;;5044232;28;38426;-77
2021/06/12 07:23:20;;;;;;;3.70;1.95;;;;;;;;;;5034025;28;37665;-77
2021/06/12 07:25:47;;;;;;;8.73;2.00;;;;;;;;;;5042551;28;40275;-78
2021/06/12 07:28:14;;;;;;;6.05;2.22;;;;;;;;;;5077889;28;38800;-77
2021/06/12 07:30:41;;;;;;;6.32;2.25;;;;;;;;;;5040932;28;39244;-78
2021/06/12 07:33:09;;;;;;;4.93;1.88;;;;;;;;;;5039089;28;36597;-78
2021/06/12 07:35:36;;;;;;;6.70;2.10;;;;;;;;;;5062846;28;39008;-77
2021/06/12 07:38:02;;;;;;;7.80;2.92;;;;;;;;;;5035019;28;38407;-77
2021/06/12 07:40:29;;;;;;;8.90;2.17;;;;;;;;;;5066902;27;39046;-77
2021/06/12 07:42:56;;;;;;;5.97;2.17;;;;;;;;;;5034863;28;36882;-78
2021/06/12 07:45:22;;;;;;;8.13;2.28;;;;;;;;;;5024390;28;39673;-78
2021/06/12 07:47:49;;;;;;;6.75;2.03;;;;;;;;;;5025711;28;38890;-77
2021/06/12 07:50:16;;;;;;;11.85;2.92;;;;;;;;;;5025371;28;39382;-77
2021/06/12 07:52:42;;;;;;;4.65;2.10;;;;;;;;;;5033967;28;37670;-77
2021/06/12 07:55:09;;;;;;;9.18;2.53;;;;;;;;;;5077094;28;38330;-77
2021/06/12 07:57:35;;;;;;;10.23;2.25;;;;;;;;;;5060338;28;37630;-77
2021/06/12 08:00:03;;;;;;;8.90;2.15;;;;;;;;;;5031055;27;39213;-77
2021/06/12 08:02:30;;;;;;;6.80;2.28;;;;;;;;;;5039507;28;38231;-78
2021/06/12 08:04:56;;;;;;;8.55;2.55;;;;;;;;;;5062867;28;38850;-77
2021/06/12 08:07:23;;;;;;;7.70;2.30;;;;;;;;;;5065216;27;37476;-78
2021/06/12 08:09:50;;;;;;;8.70;2.10;;;;;;;;;;5075027;28;37013;-77
2021/06/12 08:12:17;;;;;;;8.77;2.40;;;;;;;;;;5042276;27;36695;-76
2021/06/12 08:14:44;;;;;;;4.68;2.10;;;;;;;;;;5075823;28;40294;-76
2021/06/12 08:17:10;;;;;;;6.25;2.33;;;;;;;;;;5077357;27;37348;-77
2021/06/12 08:19:38;;;;;;;5.82;2.25;;;;;;;;;;5039356;28;37932;-79
2021/06/12 08:22:05;;;;;;;7.78;2.35;;;;;;;;;;5075290;27;35577;-79
2021/06/12 08:24:31;;;;;;;9.25;2.60;;;;;;;;;;5061827;28;37958;-78
2021/06/12 08:26:58;;;;;;;5.80;2.10;;;;;;;;;;5033204;28;38740;-79
2021/06/12 08:29:24;;;;;;;10.18;2.65;;;;;;;;;;5033277;28;38419;-77
2021/06/12 08:31:51;;;;;;;5.55;2.20;;;;;;;;;;5069254;28;36374;-77
2021/06/12 08:34:17;;;;;;;8.32;2.20;;;;;;;;;;5068712;28;37660;-77
2021/06/12 08:36:44;;;;;;;8.65;2.42;;;;;;;;;;5045142;28;38927;-79
2021/06/12 08:39:11;;;;;;;7.13;2.30;;;;;;;;;;5036761;28;38523;-78
2021/06/12 08:41:37;;;;;;;5.43;1.85;;;;;;;;;;5033635;28;36627;-76
2021/06/12 08:44:04;;;;;;;5.82;1.80;;;;;;;;;;5075942;28;38198;-78
2021/06/12 08:46:30;;;;;;;6.50;2.25;;;;;;;;;;5074070;27;38614;-77
2021/06/12 08:48:59;;;;;;;4.72;2.38;;;;;;;;;;5062106;28;37141;-77
2021/06/12 08:51:25;;;;;;;9.35;2.17;;;;;;;;;;5023416;28;35762;-78
2021/06/12 08:53:52;;;;;;;7.43;2.28;;;;;;;;;;5026807;28;39470;-78
2021/06/12 08:56:19;;;;;;;6.95;2.03;;;;;;;;;;5042237;28;38930;-78
2021/06/12 08:58:46;;;;;;;7.05;1.90;;;;;;;;;;5027712;28;38357;-78
2021/06/12 09:01:12;;;;;;;6.72;2.10;;;;;;;;;;5022284;28;37846;-77
2021/06/12 09:03:46;;;;;;;3.88;1.60;;;;;;;;;;5033090;28;40788;-77
2021/06/12 09:06:17;;;;;;;6.30;2.42;;;;;;;;;;5052213;28;39167;-77
2021/06/12 09:08:43;;;;;;;4.78;1.70;;;;;;;;;;5053496;27;37812;-77
2021/06/12 09:11:11;;;;;;;4.13;1.80;;;;;;;;;;5050078;28;37683;-78
2021/06/12 09:13:37;;;;;;;3.70;1.52;;;;;;;;;;5060947;28;39703;-77
2021/06/12 09:16:05;;;;;;;7.13;1.55;;;;;;;;;;5043552;28;38445;-78
2021/06/12 09:18:50;;;;;;;4.95;1.40;;;;;;;;;;5044158;28;39870;-79
2021/06/12 09:21:27;;;;;;;4.00;1.58;;;;;;;;;;5052612;28;37512;-77
2021/06/12 09:23:54;;;;;;;4.95;1.80;;;;;;;;;;5045623;28;39087;-77
2021/06/12 09:26:22;;;;;;;7.25;2.20;;;;;;;;;;5058384;27;39671;-78
2021/06/12 09:28:55;;;;;;;5.82;1.70;;;;;;;;;;5058140;27;38437;-77
2021/06/12 09:31:28;;;;;;;6.90;2.20;;;;;;;;;;5051255;27;36931;-77
2021/06/12 09:33:56;;;;;;;6.13;1.95;;;;;;;;;;5061778;27;38745;-77
2021/06/12 09:36:32;;;;;;;13.35;2.13;;;;;;;;;;5054893;27;38755;-78
2021/06/12 09:39:11;;;;;;;4.65;1.60;;;;;;;;;;5048661;28;38119;-76
2021/06/12 09:41:37;;;;;;;4.95;2.10;;;;;;;;;;5045229;28;47316;-77
2021/06/12 09:44:04;;;;;;;5.75;1.85;;;;;;;;;;5043330;28;40783;-77
2021/06/12 09:46:35;;;;;;;6.65;2.15;;;;;;;;;;5046071;28;39237;-77
2021/06/12 09:49:02;;;;;;;6.15;1.58;;;;;;;;;;5078139;28;39845;-77
2021/06/12 09:51:28;;;;;;;8.30;2.40;;;;;;;;;;5046733;28;48931;-77
2021/06/12 09:53:56;;;;;;;6.60;2.17;;;;;;;;;;5085201;27;37683;-77
2021/06/12 09:56:25;;;;;;;5.10;2.05;;;;;;;;;;5061160;28;40320;-77
2021/06/12 09:58:53;;;;;;;8.00;2.67;;;;;;;;;;5047552;28;38941;-77
2021/06/12 10:01:22;;;;;;;8.60;2.65;;;;;;;;;;5047131;28;36833;-76
2021/06/12 10:03:49;;;;;;;7.15;2.20;;;;;;;;;;5048651;27;40574;-76
2021/06/12 10:06:18;;;;;;;8.80;2.88;;;;;;;;;;5064215;27;39315;-77
2021/06/12 10:08:46;;;;;;;3.70;2.00;;;;;;;;;;5068310;27;39347;-77
2021/06/12 10:11:13;;;;;;;6.95;2.58;;;;;;;;;;5065343;27;37159;-77
2021/06/12 10:13:43;;;;;;;6.72;2.47;;;;;;;;;;5053948;28;38882;-78
2021/06/12 10:16:11;;;;;;;10.77;2.88;;;;;;;;;;5047072;28;38919;-77
2021/06/12 10:18:40;;;;;;;7.90;2.40;;;;;;;;;;5048212;28;39360;-77
2021/06/12 10:21:09;;;;;;;7.03;2.45;;;;;;;;;;5046101;28;36459;-77
2021/06/12 10:23:38;;;;;;;7.10;2.00;;;;;;;;;;5062767;28;39764;-77
2021/06/12 10:26:05;;;;;;;6.80;2.45;;;;;;;;;;5065518;27;38829;-76
2021/06/12 10:28:32;;;;;;;6.15;2.40;;;;;;;;;;5065559;28;39753;-76
2021/06/12 10:31:04;;;;;;;7.75;2.33;;;;;;;;;;5060883;27;36383;-77
2021/06/12 10:33:30;;;;;;;;;;;;;;;;;;5045801;28;49225;-78
2021/06/12 10:36:11;;;;;;;6.07;1.90;;;;;;;;;;5046481;28;38446;-77
2021/06/12 10:38:38;;;;;;;7.10;1.90;;;;;;;;;;5058854;28;47279;-79
2021/06/12 10:41:14;;;;;;;9.18;2.00;;;;;;;;;;5024714;28;36468;-77
2021/06/12 10:43:40;;;;;;;6.65;1.90;;;;;;;;;;5032298;28;40543;-76
2021/06/12 10:46:07;;;;;;;7.60;2.20;;;;;;;;;;5076407;27;40021;-77
2021/06/12 10:48:39;;;;;;;8.48;2.50;;;;;;;;;;5038641;28;38274;-77
2021/06/12 10:51:07;;;;;;;6.20;2.10;;;;;;;;;;5025794;28;36863;-77
2021/06/12 10:53:33;;;;;;;6.60;2.20;;;;;;;;;;5025587;28;38571;-78
2021/06/12 10:56:20;;;;;;;8.65;2.47;;;;;;;;;;5026433;28;38518;-77
2021/06/12 10:58:47;;;;;;;6.18;2.22;;;;;;;;;;5030260;28;46864;-77
2021/06/12 11:01:15;;;;;;;8.10;2.40;;;;;;;;;;5052525;27;37131;-76
2021/06/12 11:06:37;;;;;;;8.68;2.50;;;;;;;;;;5047799;27;49223;-78
2021/06/12 11:09:12;;;;;;;5.65;1.65;;;;;;;;;;5039882;28;39680;-76
2021/06/12 11:11:38;;;;;;;7.28;2.20;;;;;;;;;;5028698;28;36733;-77
2021/06/12 11:14:23;;;;;;;9.23;3.35;;;;;;;;;;5026863;28;39042;-78
2021/06/12 11:19:32;;;;;;;5.90;2.30;;;;;;;;;;5035206;28;49248;-76
2021/06/12 11:22:21;;;;;;;6.57;2.40;;;;;;;;;;5026318;28;37864;-76
2021/06/12 11:24:48;;;;;;;5.20;2.05;;;;;;;;;;5046440;28;47377;-77
2021/06/12 11:27:34;;;;;;;8.68;2.92;;;;;;;;;;5051820;27;39110;-77
2021/06/12 11:30:10;;;;;;;5.18;2.10;;;;;;;;;;5076712;27;40322;-78
2021/06/12 11:32:36;;;;;;;7.63;2.50;;;;;;;;;;5051781;27;48651;-76
2021/06/12 11:35:03;;;;;;;5.82;2.13;;;;;;;;;;5044955;28;40100;-76
2021/06/12 11:37:30;;;;;;;4.38;1.65;;;;;;;;;;5043686;28;38395;-76
2021/06/12 11:39:57;;;;;;;6.10;2.63;;;;;;;;;;5046035;28;38913;-76
2021/06/12 11:42:25;;;;;;;6.78;2.00;;;;;;;;;;5044988;28;37174;-79
2021/06/12 11:44:51;;;;;;;6.80;2.53;;;;;;;;;;5062228;28;39480;-76
2021/06/12 11:47:29;;;;;;;7.55;2.38;;;;;;;;;;5057012;27;38982;-77
2021/06/12 11:49:55;;;;;;;4.80;2.10;;;;;;;;;;5062431;27;38018;-76
2021/06/12 11:52:34;;;;;;;7.03;1.83;;;;;;;;;;5065790;27;37149;-77
2021/06/12 11:55:09;;;;;;;5.60;2.13;;;;;;;;;;5046076;28;39234;-77
2021/06/12 11:57:43;;;;;;;8.60;2.05;;;;;;;;;;5042883;28;47275;-79
2021/06/12 12:00:28;;;;;;;8.27;2.45;;;;;;;;;;5045708;27;38222;-80
2021/06/12 12:02:59;;;;;;;6.25;1.90;;;;;;;;;;5047437;28;37166;-78
2021/06/12 12:05:30;;;;;;;5.25;2.20;;;;;;;;;;5045982;28;39116;-77
2021/06/12 12:07:56;;;;;;;5.07;2.03;;;;;;;;;;5063234;27;39260;-78
2021/06/12 12:10:26;;;;;;;10.20;2.72;;;;;;;;;;5062318;27;37820;-77
2021/06/12 12:12:53;;;;;;;3.47;2.00;;;;;;;;;;5051699;28;37177;-77
2021/06/12 12:15:40;;;;;;;4.80;1.92;;;;;;;;;;5077496;28;39723;-78
2021/06/12 12:18:08;;;;;;;6.50;2.00;;;;;;;;;;5044371;28;39217;-77
2021/06/12 12:20:35;;;;;;;4.90;1.92;;;;;;;;;;5065601;27;39338;-77
2021/06/12 12:23:02;;;;;;;5.78;1.60;;;;;;;;;;5066414;27;37693;-77
2021/06/12 12:25:30;;;;;;;8.73;2.50;;;;;;;;;;5051776;28;39093;-78
2021/06/12 12:28:08;;;;;;;11.27;2.83;;;;;;;;;;5057173;28;39112;-77
2021/06/12 12:30:36;;;;;;;12.05;2.13;;;;;;;;;;5063848;27;49078;-78
2021/06/12 12:33:13;;;;;;;3.95;1.88;;;;;;;;;;5059793;27;38015;-78
2021/06/12 12:35:39;;;;;;;4.55;1.60;;;;;;;;;;5060749;28;39650;-78
2021/06/12 12:38:15;;;;;;;5.45;2.03;;;;;;;;;;5056227;28;39922;-78
2021/06/12 12:40:41;;;;;;;3.30;1.52;;;;;;;;;;5045816;28;37718;-77
2021/06/12 12:43:08;;;;;;;8.38;2.33;;;;;;;;;;5055918;28;38351;-77
2021/06/12 12:45:35;;;;;;;7.82;1.60;;;;;;;;;;5062950;27;38872;-78
2021/06/12 12:48:02;;;;;;;6.57;1.88;;;;;;;;;;5065002;27;38478;-77
2021/06/12 12:50:29;;;;;;;8.63;1.95;;;;;;;;;;5061567;27;48977;-77
2021/06/12 12:53:05;;;;;;;6.35;1.70;;;;;;;;;;5065600;27;37395;-77
2021/06/12 12:55:32;;;;;;;5.07;2.05;;;;;;;;;;5063122;28;47383;-78
2021/06/12 12:57:58;;;;;;;5.25;1.67;;;;;;;;;;5066046;28;39019;-78
2021/06/12 13:00:28;;;;;;;7.35;1.77;;;;;;;;;;5050647;27;38542;-78
2021/06/12 13:02:56;;;;;;;5.30;1.50;;;;;;;;;;5053043;27;36699;-76
2021/06/12 13:05:22;;;;;;;11.00;2.17;;;;;;;;;;5047030;28;40551;-76
2021/06/12 13:07:58;;;;;;;6.70;2.17;;;;;;;;;;5027913;28;37766;-76
2021/06/12 13:10:29;;;;;;;7.32;2.30;;;;;;;;;;5027482;28;39543;-79
2021/06/12 13:12:57;;;;;;;7.07;1.90;;;;;;;;;;5033070;28;37150;-77
2021/06/12 13:15:24;;;;;;;7.80;2.53;;;;;;;;;;5026596;28;38875;-78
2021/06/12 13:17:51;;;;;;;7.95;1.85;;;;;;;;;;5028653;28;38798;-76
2021/06/12 13:20:22;;;;;;;8.13;2.75;;;;;;;;;;5037385;27;37498;-79
2021/06/12 13:22:48;;;;;;;8.25;2.80;;;;;;;;;;5048289;28;37842;-77
2021/06/12 13:25:16;;;;;;;5.45;1.83;;;;;;;;;;5044124;27;38826;-78
2021/06/12 13:27:44;;;;;;;4.97;1.65;;;;;;;;;;5049008;28;38422;-78
2021/06/12 13:30:10;;;;;;;6.13;2.00;;;;;;;;;;5044294;27;38482;-76
2021/06/12 13:32:37;;;;;;;7.38;1.80;;;;;;;;;;5081628;28;37233;-77
2021/06/12 13:35:05;;;;;;;7.00;2.28;;;;;;;;;;5047652;28;20103;-78
2021/06/12 13:37:31;;;;;;;4.25;1.50;;;;;;;;;;5038939;28;47445;-77
2021/06/12 13:39:59;;;;;;;4.60;1.60;;;;;;;;;;5036923;28;38477;-77
2021/06/12 13:42:32;;;;;;;7.38;2.08;;;;;;;;;;5039813;28;37755;-77
2021/06/12 13:45:03;;;;;;;7.05;2.15;;;;;;;;;;5070899;28;40080;-77
2021/06/12 13:47:30;;;;;;;7.30;1.97;;;;;;;;;;5030187;28;47162;-77
2021/06/12 13:49:56;;;;;;;8.27;2.22;;;;;;;;;;5079678;28;38202;-78
2021/06/12 13:52:23;;;;;;;9.13;2.38;;;;;;;;;;5077916;27;37110;-77
2021/06/12 13:54:49;;;;;;;7.35;2.10;;;;;;;;;;5045103;28;38764;-76
2021/06/12 13:57:19;;;;;;;6.95;1.95;;;;;;;;;;5053949;28;38848;-77
2021/06/12 13:59:45;;;;;;;7.53;2.88;;;;;;;;;;5063800;28;37232;-79
2021/06/12 14:02:12;;;;;;;7.00;2.05;;;;;;;;;;5052134;27;36940;-77
2021/06/12 14:04:39;;;;;;;8.57;1.95;;;;;;;;;;5065921;27;38822;-76
2021/06/12 14:07:06;;;;;;;4.97;2.40;;;;;;;;;;5064487;27;38452;-78
2021/06/12 14:09:34;;;;;;;6.10;1.75;;;;;;;;;;5066971;27;38150;-78
2021/06/12 14:12:01;;;;;;;5.63;1.88;;;;;;;;;;5059658;27;36994;-77
2021/06/12 14:14:27;;;;;;;5.30;2.10;;;;;;;;;;5052632;27;41575;-77
2021/06/12 14:16:54;;;;;;;4.85;1.80;;;;;;;;;;5057608;28;39016;-77
2021/06/12 14:19:20;;;;;;;5.97;2.05;;;;;;;;;;5066072;27;39180;-77
2021/06/12 14:21:48;;;;;;;3.85;1.40;;;;;;;;;;5065493;28;37289;-77
2021/06/12 14:24:14;;;;;;;7.07;1.90;;;;;;;;;;5065876;27;39420;-76
2021/06/12 14:26:48;;;;;;;9.10;2.47;;;;;;;;;;5055307;28;38758;-79
2021/06/12 14:29:16;;;;;;;6.25;1.50;;;;;;;;;;5047622;27;38475;-78
2021/06/12 14:31:43;;;;;;;5.93;1.90;;;;;;;;;;5046521;28;37056;-78
2021/06/12 14:34:09;;;;;;;5.43;1.95;;;;;;;;;;5047445;28;39552;-77
2021/06/12 14:36:36;;;;;;;6.57;1.55;;;;;;;;;;5045241;28;39965;-77
2021/06/12 14:39:02;;;;;;;4.60;2.00;;;;;;;;;;5054831;28;38810;-78
2021/06/12 14:41:28;;;;;;;5.32;1.90;;;;;;;;;;5048071;28;37291;-77
2021/06/12 14:43:55;;;;;;;5.65;2.08;;;;;;;;;;5065733;28;39413;-79
2021/06/12 14:46:21;;;;;;;6.43;1.77;;;;;;;;;;5064137;27;38885;-78
2021/06/12 14:48:48;;;;;;;6.68;2.08;;;;;;;;;;5066827;27;38684;-77